Taos, Missouri
Current Conditions -  °F | °C
As of 7:53 PM on Friday 19 Dec 2014 (Local Time) from KJEF Reporting Station
Overcast Overcast  
Wind Chill: 33°   Ceiling: 1500
Heat Index: 37°   Visibility: 7mi
Dew Point: 32°   Wind: 5mph
Humidity: 82%   Direction: 110°ESE
Pressure: 30.24"   Gusts: NA
Location:  38.5003°N, 92.1516°W
Report Text: KJEF 200153Z 11004KT 7SM OVC015 03/00 A3024 RMK AO2 SLP236 T00280000
Loading
Personal Weather Stations






























Interactive Weather Map New forecast layout! Learn more

10-Day Weather Forecast

Advertisements
Track Severe Weather on mobile